Time;durP1;ratioP1;P1;durP2;ratioP2;P2;SDS_P1;SDS_P2;PMS_P1;PMS_P2;Temp;Humidity;BMP_temperature;BMP_pressure;BME280_temperature;BME280_humidity;BME280_pressure;Samples;Min_cycle;Max_cycle;Signal;HPM_P1;HPM_P2
2022/03/23 00:02:19;;;;;;;;;48.00;40.25;;;;;14.88;37.63;102027.09;5077428;28;45583;-64
2022/03/23 00:04:45;;;;;;;;;49.25;39.50;;;;;14.87;37.63;102025.38;5077208;27;46153;-62
2022/03/23 00:07:10;;;;;;;;;51.00;42.00;;;;;14.85;38.24;102024.56;5088074;27;45379;-62
2022/03/23 00:09:35;;;;;;;;;49.00;39.25;;;;;14.83;37.90;102027.25;5096436;27;45399;-62
2022/03/23 00:12:01;;;;;;;;;44.50;39.00;;;;;14.82;38.01;102028.16;5071142;27;45614;-62
2022/03/23 00:14:26;;;;;;;;;51.00;40.75;;;;;14.83;38.31;102036.97;5067675;27;45907;-62
2022/03/23 00:16:51;;;;;;;;;50.50;40.75;;;;;14.80;37.86;102040.56;5065594;27;45496;-62
2022/03/23 00:19:17;;;;;;;;;50.75;43.00;;;;;14.77;37.74;102033.59;5061430;28;45418;-62
2022/03/23 00:21:43;;;;;;;;;51.25;39.50;;;;;14.75;37.70;102032.78;5068955;28;45433;-62
2022/03/23 00:24:08;;;;;;;;;47.50;40.75;;;;;14.74;37.31;102038.97;5076900;27;45427;-62
2022/03/23 00:26:34;;;;;;;;;51.00;43.00;;;;;14.72;38.38;102045.22;5072158;27;45443;-62
2022/03/23 00:28:59;;;;;;;;;48.25;39.25;;;;;14.70;38.51;102040.00;5068504;28;45485;-62
2022/03/23 00:31:25;;;;;;;;;48.25;38.75;;;;;14.70;38.35;102041.78;5070108;27;45660;-61
2022/03/23 00:33:51;;;;;;;;;45.50;39.25;;;;;14.69;38.43;102043.53;5063787;27;46062;-62
2022/03/23 00:36:17;;;;;;;;;50.50;41.25;;;;;14.68;37.54;102041.81;5055260;28;45478;-62
2022/03/23 00:38:43;;;;;;;;;42.50;35.25;;;;;14.65;37.71;102035.75;5075962;28;45468;-61
2022/03/23 00:41:09;;;;;;;;;50.50;40.75;;;;;14.64;37.26;102040.19;5075436;28;45507;-59
2022/03/23 00:43:35;;;;;;;;;109.00;101.25;;;;;14.61;37.28;102045.53;5076498;28;45919;-61
2022/03/23 00:46:01;;;;;;;;;745.00;645.75;;;;;14.60;37.41;102038.53;5076629;27;45450;-59
2022/03/23 00:48:27;;;;;;;;;42.25;34.25;;;;;14.57;37.60;102036.84;5068514;27;45818;-61
2022/03/23 00:50:53;;;;;;;;;39.25;35.75;;;;;14.55;38.02;102040.44;5085774;27;45686;-62
2022/03/23 00:53:18;;;;;;;;;48.75;39.00;;;;;14.53;37.37;102035.19;5095859;27;46146;-61
2022/03/23 00:55:44;;;;;;;;;48.25;39.50;;;;;14.52;36.94;102040.50;5077094;27;45526;-61
2022/03/23 00:58:10;;;;;;;;;45.50;39.00;;;;;14.51;37.38;102038.78;5076810;27;45549;-61
2022/03/23 01:00:35;;;;;;;;;49.00;40.00;;;;;14.51;37.06;102047.56;5076734;27;45442;-61
2022/03/23 01:03:00;;;;;;;;;44.75;38.50;;;;;14.51;37.42;102044.06;5076548;27;45421;-61
2022/03/23 01:05:26;;;;;;;;;48.75;39.00;;;;;14.50;36.98;102050.25;5062951;27;45380;-61
2022/03/23 01:07:52;;;;;;;;;50.25;41.00;;;;;14.48;37.29;102036.19;5072300;27;45401;-61
2022/03/23 01:10:18;;;;;;;;;39.75;36.25;;;;;14.47;37.05;102037.09;5065012;27;45470;-61
2022/03/23 01:12:45;;;;;;;;;82.50;76.50;;;;;14.46;36.88;102040.69;5076395;28;45459;-62
2022/03/23 01:15:14;;;;;;;;;136.00;128.00;;;;;14.44;37.32;102037.19;5073151;27;45793;-61
2022/03/23 01:17:39;;;;;;;;;37.75;35.00;;;;;14.40;36.85;102044.38;5078999;27;45459;-62
2022/03/23 01:20:10;;;;;;;;;43.25;38.00;;;;;14.38;36.48;102038.25;5073194;27;45477;-61
2022/03/23 01:22:37;;;;;;;;;47.00;37.00;;;;;14.35;36.71;102039.19;5067837;27;46427;-61
2022/03/23 01:25:08;;;;;;;;;44.25;36.00;;;;;14.32;36.81;102036.63;5055999;28;45337;-61
2022/03/23 01:27:34;;;;;;;;;38.00;34.25;;;;;14.31;36.68;102041.97;5056034;28;45444;-62
2022/03/23 01:30:00;;;;;;;;;42.25;37.25;;;;;14.29;36.97;102038.47;5056106;28;45324;-62
2022/03/23 01:32:25;;;;;;;;;38.75;34.25;;;;;14.28;36.85;102036.75;5055940;27;46285;-62
2022/03/23 01:34:50;;;;;;;;;38.75;35.00;;;;;14.25;36.04;102028.91;5055928;28;45446;-62
2022/03/23 01:37:16;;;;;;;;;34.50;33.50;;;;;14.23;35.96;102033.38;5056100;28;45368;-62
2022/03/23 01:39:41;;;;;;;;;37.75;34.50;;;;;14.20;36.05;102029.03;5074283;28;45480;-61
2022/03/23 01:42:07;;;;;;;;;40.25;36.00;;;;;14.16;36.18;102030.03;5075106;27;46074;-62
2022/03/23 01:44:33;;;;;;;;;42.25;33.00;;;;;14.13;35.97;102031.00;5076061;27;45540;-61
2022/03/23 01:47:06;;;;;;;;;33.75;30.00;;;;;14.10;36.68;102030.19;5075950;27;45548;-62
2022/03/23 01:49:43;;;;;;;;;35.50;32.00;;;;;14.07;36.03;102030.28;5074518;27;45649;-61
2022/03/23 01:52:11;;;;;;;;;39.25;35.50;;;;;14.02;36.30;102024.22;5075749;27;45553;-62
2022/03/23 01:54:38;;;;;;;;;43.75;36.50;;;;;13.99;36.25;102027.81;5064670;27;45350;-62
2022/03/23 01:57:05;;;;;;;;;39.25;35.50;;;;;13.93;36.52;102028.84;5072447;27;45395;-62
2022/03/23 01:59:31;;;;;;;;;39.25;33.25;;;;;13.90;36.41;102028.09;5056083;27;45438;-63
2022/03/23 02:01:57;;;;;;;;;30.50;24.00;;;;;13.87;36.13;102021.09;5055415;28;46260;-61
2022/03/23 02:04:22;;;;;;;;;39.75;35.50;;;;;13.85;36.31;102029.97;5056092;28;45417;-61
2022/03/23 02:06:48;;;;;;;;;37.25;33.00;;;;;13.82;36.34;102028.28;5059716;27;45453;-61
2022/03/23 02:09:15;;;;;;;;;41.75;34.75;;;;;13.77;35.99;102016.09;5079489;28;45604;-61
2022/03/23 02:11:41;;;;;;;;;42.75;34.50;;;;;13.76;36.52;102020.50;5066815;27;46133;-61
2022/03/23 02:14:07;;;;;;;;;39.25;34.50;;;;;13.75;36.10;102020.53;5067210;27;45670;-61
2022/03/23 02:17:05;;;;;;;;;34.75;32.50;;;;;13.70;36.36;102020.66;5066818;27;45438;-61
2022/03/23 02:19:30;;;;;;;;;43.75;36.00;;;;;13.67;36.41;102023.38;5057925;28;45371;-61
2022/03/23 02:21:56;;;;;;;;;38.25;35.25;;;;;13.63;36.53;102027.88;5058632;27;46358;-61
2022/03/23 02:24:24;;;;;;;;;41.00;37.50;;;;;13.60;36.51;102025.31;5067456;27;45506;-61
2022/03/23 02:26:51;;;;;;;;;41.00;35.25;;;;;13.58;36.15;102029.78;5073761;27;45532;-61
2022/03/23 02:29:18;;;;;;;;;42.75;35.00;;;;;13.55;36.53;102024.56;5070695;27;45616;-61
2022/03/23 02:31:43;;;;;;;;;41.00;36.25;;;;;13.52;36.88;102026.41;5071218;27;45590;-61
2022/03/23 02:34:09;;;;;;;;;41.50;35.75;;;;;13.51;37.09;102022.03;5078805;27;45554;-61
2022/03/23 02:36:35;;;;;;;;;37.25;33.00;;;;;13.49;36.68;102030.00;5079138;27;45322;-62
2022/03/23 02:39:01;;;;;;;;;42.50;37.25;;;;;13.47;36.78;102032.69;5064118;27;45442;-61
2022/03/23 02:41:28;;;;;;;;;33.50;33.00;;;;;13.45;36.55;102023.91;5065058;27;46203;-61
2022/03/23 02:43:53;;;;;;;;;39.50;35.25;;;;;13.43;36.94;102033.66;5078695;27;45435;-61
2022/03/23 02:46:19;;;;;;;;;37.25;31.25;;;;;13.40;36.94;102030.22;5069785;28;45413;-61
2022/03/23 02:48:46;;;;;;;;;34.25;32.75;;;;;13.36;36.55;102032.06;5059219;27;45404;-62
2022/03/23 02:51:12;;;;;;;;;42.00;37.00;;;;;13.34;36.95;102031.22;5065356;27;45528;-61
2022/03/23 03:02:50;;;;;;;;;39.50;34.25;;;;;13.27;36.73;102045.47;5057422;28;45498;-61
2022/03/23 03:05:16;;;;;;;;;43.75;37.00;;;;;13.26;37.44;102038.47;5057093;28;45476;-61
2022/03/23 03:10:26;;;;;;;;;35.25;33.00;;;;;13.24;37.31;102057.00;5075057;27;45526;-61
2022/03/23 03:12:52;;;;;;;;;9.75;7.50;;;;;13.23;37.18;102049.09;5077310;27;45905;-61
2022/03/23 03:15:19;;;;;;;;;32.50;31.00;;;;;13.22;36.86;102050.00;5077078;27;45438;-61
2022/03/23 03:17:49;;;;;;;;;36.00;33.25;;;;;13.20;37.15;102052.66;5072643;27;45402;-61
2022/03/23 03:20:15;;;;;;;;;34.00;32.75;;;;;13.19;36.65;102056.22;5064091;28;45465;-61
2022/03/23 03:22:43;;;;;;;;;34.25;29.50;;;;;13.16;36.77;102055.41;5077070;28;45452;-61
2022/03/23 03:25:12;;;;;;;;;38.75;32.50;;;;;13.12;37.14;102059.03;5072918;27;45454;-61
2022/03/23 03:27:39;;;;;;;;;36.75;32.75;;;;;13.11;37.34;102062.56;5077093;28;45595;-61
2022/03/23 03:30:06;;;;;;;;;34.00;33.50;;;;;13.10;36.60;102063.47;5075340;28;45569;-61
2022/03/23 03:32:32;;;;;;;;;36.00;31.75;;;;;13.07;36.89;102060.91;5076773;28;46391;-61
2022/03/23 03:34:58;;;;;;;;;33.75;33.00;;;;;13.05;37.11;102071.50;5076597;28;45393;-61
2022/03/23 03:37:23;;;;;;;;;39.50;36.50;;;;;13.01;37.13;102064.56;5068315;27;45388;-61
2022/03/23 03:39:49;;;;;;;;;37.00;34.25;;;;;12.97;37.28;102076.06;5072097;27;45579;-61
2022/03/23 03:42:14;;;;;;;;;36.25;33.25;;;;;12.94;36.87;102065.59;5076682;27;45989;-61
2022/03/23 03:44:40;;;;;;;;;35.50;34.25;;;;;12.93;37.36;102083.19;5076539;27;45409;-61
2022/03/23 03:47:05;;;;;;;;;32.75;29.25;;;;;12.92;37.43;102075.31;5076809;27;45369;-61
2022/03/23 03:49:31;;;;;;;;;33.00;31.25;;;;;12.88;37.55;102074.50;5063603;27;45712;-62
2022/03/23 03:51:57;;;;;;;;;34.50;34.00;;;;;12.91;37.52;102081.50;5067696;28;46049;-62
2022/03/23 03:54:22;;;;;;;;;35.75;33.25;;;;;12.90;37.72;102080.63;5074572;27;45508;-62
2022/03/23 03:56:48;;;;;;;;;37.50;33.50;;;;;12.89;37.12;102083.28;5033181;27;1231473;-61
2022/03/23 03:59:13;;;;;;;;;33.50;31.00;;;;;12.86;37.61;102084.22;5076846;27;45465;-62
2022/03/23 04:01:39;;;;;;;;;36.75;32.50;;;;;12.82;37.54;102079.94;5077388;27;46151;-62
2022/03/23 04:04:04;;;;;;;;;34.25;29.75;;;;;12.80;37.23;102087.00;5076048;27;45483;-62
2022/03/23 04:06:29;;;;;;;;;36.00;33.25;;;;;12.76;37.27;102086.22;5077723;27;45422;-62
2022/03/23 04:08:55;;;;;;;;;38.25;35.75;;;;;12.74;37.19;102084.50;5069849;27;45489;-62
2022/03/23 04:11:20;;;;;;;;;30.75;29.00;;;;;12.70;36.76;102096.00;5057758;27;45708;-62
2022/03/23 04:13:46;;;;;;;;;32.75;31.75;;;;;12.66;37.02;102094.34;5057093;28;45447;-62
2022/03/23 04:16:12;;;;;;;;;29.75;28.50;;;;;12.54;36.99;102098.94;5056314;27;45557;-62
2022/03/23 04:18:37;;;;;;;;;30.75;30.75;;;;;12.49;37.72;102098.19;5068914;28;45359;-62
2022/03/23 04:21:02;;;;;;;;;40.75;34.00;;;;;12.35;37.44;102097.56;5076886;28;57084;-62
2022/03/23 04:23:28;;;;;;;;;32.00;32.00;;;;;12.31;37.87;102102.03;5075128;27;45482;-62
2022/03/23 04:25:53;;;;;;;;;37.25;33.50;;;;;12.21;38.28;102102.22;5067673;28;45350;-62
2022/03/23 04:28:21;;;;;;;;;35.75;30.75;;;;;12.20;37.63;102104.00;5074864;27;45489;-62
2022/03/23 04:30:46;;;;;;;;;35.25;33.75;;;;;12.25;38.02;102106.53;5068042;27;45723;-61
2022/03/23 04:33:12;;;;;;;;;34.00;33.50;;;;;12.19;38.02;102096.97;5076658;27;45505;-62
2022/03/23 04:35:37;;;;;;;;;34.00;31.75;;;;;12.18;37.72;102107.56;5072709;27;45358;-62
2022/03/23 04:38:03;;;;;;;;;29.00;28.50;;;;;12.20;38.11;102111.91;5057228;27;45452;-62
2022/03/23 04:40:28;;;;;;;;;35.75;34.25;;;;;12.18;37.75;102108.41;5056598;28;46000;-62
2022/03/23 04:42:53;;;;;;;;;34.75;32.00;;;;;12.13;38.44;102107.63;5056384;28;45436;-62
2022/03/23 04:45:19;;;;;;;;;33.25;31.50;;;;;12.12;38.45;102103.25;5062575;27;45483;-62
2022/03/23 04:47:45;;;;;;;;;33.00;33.00;;;;;12.09;37.53;102108.56;5056797;28;45564;-62
2022/03/23 04:50:11;;;;;;;;;38.50;33.00;;;;;12.05;38.62;102112.16;5056255;28;45420;-62
2022/03/23 04:52:41;;;;;;;;;30.75;24.75;;;;;12.03;38.55;102106.91;5056308;28;45426;-62
2022/03/23 04:55:09;;;;;;;;;32.00;29.00;;;;;12.07;37.95;102116.53;5057489;27;45550;-62
2022/03/23 04:57:35;;;;;;;;;34.75;31.00;;;;;12.12;37.86;102113.81;5058683;27;45498;-62
2022/03/23 05:00:01;;;;;;;;;32.75;32.75;;;;;12.18;38.65;102120.75;5076220;27;45430;-62
2022/03/23 05:02:26;;;;;;;;;33.75;29.50;;;;;12.20;38.10;102114.56;5067419;27;45387;-62
2022/03/23 05:04:52;;;;;;;;;36.00;34.50;;;;;12.23;38.02;102117.13;5074795;27;45443;-62
2022/03/23 05:07:17;;;;;;;;;33.50;28.75;;;;;12.25;37.96;102103.88;5076443;27;45566;-61
2022/03/23 05:09:43;;;;;;;;;27.50;26.75;;;;;12.27;38.08;102113.53;5063689;27;46284;-61
2022/03/23 05:12:09;;;;;;;;;34.50;32.75;;;;;12.30;37.72;102116.09;5055937;28;45349;-61
2022/03/23 05:14:36;;;;;;;;;33.50;32.75;;;;;12.32;38.27;102110.81;5068118;27;45323;-62
2022/03/23 05:17:01;;;;;;;;;30.25;30.25;;;;;12.32;37.12;102116.94;5076435;27;45405;-61
2022/03/23 05:19:27;;;;;;;;;36.75;33.75;;;;;12.33;37.69;102115.16;5066014;28;46146;-61
2022/03/23 05:21:52;;;;;;;;;35.25;31.25;;;;;12.33;38.00;102118.72;5076141;28;45500;-61
2022/03/23 05:24:18;;;;;;;;;36.00;32.75;;;;;12.34;37.69;102125.72;5068890;27;45502;-62
2022/03/23 05:26:43;;;;;;;;;27.25;26.75;;;;;12.35;37.54;102127.44;5055823;28;45469;-61
2022/03/23 05:29:09;;;;;;;;;35.25;32.75;;;;;12.34;37.89;102124.84;5072969;28;46663;-61
2022/03/23 05:31:35;;;;;;;;;33.00;30.75;;;;;12.34;38.10;102120.44;5076075;28;45863;-61
2022/03/23 05:34:00;;;;;;;;;31.50;29.75;;;;;12.36;37.21;102125.69;5068718;27;45546;-62
2022/03/23 05:36:25;;;;;;;;;32.75;30.25;;;;;12.36;37.79;102123.06;5056470;28;45405;-62
2022/03/23 05:38:51;;;;;;;;;35.00;30.00;;;;;12.38;38.47;102126.50;5055788;28;46060;-62
2022/03/23 05:41:17;;;;;;;;;31.75;31.50;;;;;12.37;38.01;102125.66;5056117;27;45375;-62
2022/03/23 05:43:42;;;;;;;;;34.50;30.75;;;;;12.39;38.06;102130.91;5065901;27;45485;-62
2022/03/23 05:46:08;;;;;;;;;35.00;29.75;;;;;12.39;37.58;102123.00;5057899;27;45639;-61
2022/03/23 05:48:33;;;;;;;;;31.75;30.50;;;;;12.39;37.16;102133.56;5055682;28;46258;-61
2022/03/23 05:50:58;;;;;;;;;29.50;27.75;;;;;12.39;38.05;102130.91;5055943;27;45382;-62
2022/03/23 05:53:24;;;;;;;;;33.00;29.00;;;;;12.39;37.42;102125.63;5062979;27;45378;-61
2022/03/23 05:55:49;;;;;;;;;26.00;26.00;;;;;12.39;37.65;102128.28;5055416;28;45346;-61
2022/03/23 05:58:15;;;;;;;;;30.75;28.25;;;;;12.38;38.02;102122.13;5062457;27;45933;-62
2022/03/23 06:00:40;;;;;;;;;29.50;26.00;;;;;12.39;37.32;102130.91;5075557;27;45389;-62
2022/03/23 06:03:06;;;;;;;;;23.50;22.00;;;;;12.37;37.99;102124.78;5063302;27;45845;-62
2022/03/23 06:05:31;;;;;;;;;36.25;34.00;;;;;12.40;38.07;102124.72;5060646;27;45371;-62
2022/03/23 06:07:56;;;;;;;;;28.25;28.25;;;;;12.42;37.96;102130.00;5055413;28;45420;-61
2022/03/23 06:10:22;;;;;;;;;30.00;29.00;;;;;12.43;37.79;102131.72;5063891;27;45555;-62
2022/03/23 06:12:47;;;;;;;;;36.25;34.25;;;;;12.42;38.22;102140.53;5057277;27;45477;-62
2022/03/23 06:15:13;;;;;;;;;38.25;31.75;;;;;12.41;37.16;102150.19;5068652;27;45591;-61
2022/03/23 06:17:39;;;;;;;;;36.25;33.50;;;;;12.36;36.84;102157.34;5060307;27;45678;-61
2022/03/23 06:20:05;;;;;;;;;29.75;28.75;;;;;12.31;37.63;102161.84;5075554;27;45452;-62
2022/03/23 06:22:31;;;;;;;;;38.25;31.75;;;;;12.26;37.43;102161.06;5059844;27;45511;-62
2022/03/23 06:24:56;;;;;;;;;40.00;34.25;;;;;12.21;37.45;102165.53;5056134;27;45659;-61
2022/03/23 06:27:22;;;;;;;;;40.25;34.00;;;;;12.16;37.75;102166.47;5055435;28;46015;-61
2022/03/23 06:29:48;;;;;;;;;32.25;30.00;;;;;12.13;38.43;102174.44;5056191;28;45353;-61
2022/03/23 06:32:14;;;;;;;;;32.75;30.75;;;;;12.11;38.20;102170.94;5073497;27;45576;-61
2022/03/23 06:34:39;;;;;;;;;40.50;36.00;;;;;12.07;38.98;102164.00;5075410;27;45548;-61
2022/03/23 06:37:05;;;;;;;;;41.50;34.00;;;;;12.06;38.72;102175.44;5075152;27;46420;-61
2022/03/23 06:39:31;;;;;;;;;32.00;30.50;;;;;12.03;38.40;102167.56;5071193;27;45482;-61
2022/03/23 06:41:57;;;;;;;;;37.25;35.75;;;;;12.02;38.61;102180.78;5056644;27;45350;-61
2022/03/23 06:44:22;;;;;;;;;39.00;36.00;;;;;12.00;38.77;102180.78;5073176;27;45447;-61
2022/03/23 06:46:48;;;;;;;;;36.75;34.75;;;;;12.02;38.01;102183.44;5061096;27;46150;-61
2022/03/23 06:49:13;;;;;;;;;34.75;31.00;;;;;12.05;38.97;102186.00;5065024;27;45797;-62
2022/03/23 06:51:38;;;;;;;;;33.00;33.00;;;;;12.06;39.06;102191.28;5076265;27;45464;-62
2022/03/23 06:54:04;;;;;;;;;39.25;33.50;;;;;12.10;37.96;102186.81;5075473;27;45515;-62
2022/03/23 06:56:29;;;;;;;;;34.25;32.50;;;;;12.12;39.05;102188.53;5058510;27;45533;-62
2022/03/23 06:58:56;;;;;;;;;37.00;34.25;;;;;12.14;38.02;102191.13;5063107;27;45558;-62
2022/03/23 07:01:21;;;;;;;;;38.25;34.00;;;;;12.18;38.05;102198.09;5068792;27;45407;-62
2022/03/23 07:03:48;;;;;;;;;33.25;33.25;;;;;12.20;38.04;102195.41;5075588;27;45575;-62
2022/03/23 07:06:15;;;;;;;;;36.50;34.25;;;;;12.22;38.48;102199.78;5078487;27;45490;-62
2022/03/23 07:11:24;;;;;;;;;33.50;31.00;;;;;12.27;38.44;102203.22;5076190;27;45391;-62
2022/03/23 07:13:50;;;;;;;;;30.25;28.25;;;;;12.30;37.70;102203.16;5076370;27;45539;-62
2022/03/23 07:16:15;;;;;;;;;33.50;29.00;;;;;12.33;37.33;102199.59;5078069;27;45381;-62
2022/03/23 07:18:40;;;;;;;;;32.00;32.00;;;;;12.37;37.38;102203.94;5072354;27;45517;-60
2022/03/23 07:21:06;;;;;;;;;36.50;33.00;;;;;12.39;37.62;102202.16;5068725;27;45592;-60
2022/03/23 07:23:34;;;;;;;;;28.75;28.75;;;;;12.43;36.64;102208.25;5058179;27;45533;-61
2022/03/23 07:26:00;;;;;;;;;27.75;26.25;;;;;12.43;36.70;102206.47;5063950;27;45351;-61
2022/03/23 07:28:26;;;;;;;;;27.00;27.00;;;;;12.45;36.63;102204.69;5061454;27;45465;-61
2022/03/23 07:30:51;;;;;;;;;26.25;26.25;;;;;12.48;36.36;102201.13;5079986;27;45605;-61
2022/03/23 07:33:17;;;;;;;;;26.50;26.25;;;;;12.49;36.72;102206.38;5058379;27;45588;-61
2022/03/23 07:35:42;;;;;;;;;26.75;26.75;;;;;12.52;36.03;102208.06;5067175;27;45350;-61
2022/03/23 07:38:08;;;;;;;;;29.25;28.50;;;;;12.54;36.80;102208.91;5076794;27;50245;-61
2022/03/23 07:40:33;;;;;;;;;27.25;25.50;;;;;12.57;35.98;102211.50;5064787;27;45458;-61
2022/03/23 07:42:59;;;;;;;;;28.50;28.25;;;;;12.58;36.31;102214.13;5077956;27;45375;-61
2022/03/23 07:45:24;;;;;;;;;27.00;27.00;;;;;12.62;36.09;102211.44;5067336;27;45468;-61
2022/03/23 07:47:50;;;;;;;;;28.50;28.50;;;;;12.67;36.79;102212.22;5077455;27;45438;-61
2022/03/23 07:50:15;;;;;;;;;29.50;27.50;;;;;12.69;36.52;102213.94;5074525;27;45395;-61
2022/03/23 07:52:41;;;;;;;;;28.75;28.75;;;;;12.74;36.75;102214.72;5071392;27;45381;-61
2022/03/23 07:55:07;;;;;;;;;30.50;29.25;;;;;12.79;36.76;102228.72;5076068;27;45873;-61
2022/03/23 07:57:32;;;;;;;;;33.25;31.50;;;;;12.82;35.88;102228.66;5061423;27;45458;-62
2022/03/23 07:59:57;;;;;;;;;27.25;24.00;;;;;12.83;36.44;102234.78;5067332;27;45486;-61
2022/03/23 08:02:24;;;;;;;;;32.00;29.75;;;;;12.85;36.21;102234.78;5065816;27;45426;-60
2022/03/23 08:04:49;;;;;;;;;33.00;29.75;;;;;12.86;35.71;102231.22;5075485;27;45404;-61
2022/03/23 08:07:15;;;;;;;;;31.25;28.50;;;;;12.90;36.64;102240.84;5070461;27;45643;-61
2022/03/23 08:09:40;;;;;;;;;41.00;33.00;;;;;12.90;36.22;102241.72;5061817;27;45434;-61
2022/03/23 08:12:06;;;;;;;;;32.50;32.50;;;;;12.94;36.24;102243.38;5058685;27;45431;-63
2022/03/23 08:14:31;;;;;;;;;34.00;32.50;;;;;12.98;36.15;102238.94;5058522;27;45553;-61
2022/03/23 08:16:56;;;;;;;;;32.00;32.00;;;;;13.02;36.90;102245.88;5077238;27;45385;-61
2022/03/23 08:19:22;;;;;;;;;33.00;30.50;;;;;13.03;36.48;102237.06;5059986;27;45531;-61
2022/03/23 08:21:51;;;;;;;;;37.25;35.75;;;;;13.10;36.33;102251.03;5071481;27;45474;-61
2022/03/23 08:24:17;;;;;;;;;34.50;33.25;;;;;13.09;36.24;102242.22;5071605;27;45672;-61
2022/03/23 08:26:43;;;;;;;;;39.00;32.50;;;;;13.13;36.59;102248.31;5072223;27;45373;-61
2022/03/23 08:29:08;;;;;;;;;35.00;31.25;;;;;13.15;35.68;102252.66;5058307;27;45352;-61
2022/03/23 08:31:34;;;;;;;;;28.75;26.50;;;;;13.20;35.23;102247.31;5071438;27;45670;-61
2022/03/23 08:34:00;;;;;;;;;30.00;30.00;;;;;13.23;35.21;102250.75;5060733;27;46171;-61
2022/03/23 08:36:25;;;;;;;;;31.25;30.75;;;;;13.24;35.48;102244.56;5060392;27;45893;-61
2022/03/23 08:38:50;;;;;;;;;30.75;28.75;;;;;13.27;34.96;102246.28;5065584;27;45417;-61
2022/03/23 08:41:16;;;;;;;;;26.75;23.25;;;;;13.29;34.98;102247.13;5062156;27;45431;-61
2022/03/23 08:43:41;;;;;;;;;27.75;27.00;;;;;13.32;34.28;102255.00;5065670;27;45970;-61
2022/03/23 08:46:08;;;;;;;;;23.00;21.75;;;;;13.34;34.78;102252.34;5069161;27;45487;-61
2022/03/23 08:48:34;;;;;;;;;31.00;26.00;;;;;13.33;34.43;102256.75;5056936;27;45586;-61
2022/03/23 08:50:59;;;;;;;;;24.25;21.25;;;;;13.38;34.77;102251.34;5065655;27;45670;-61
2022/03/23 08:53:26;;;;;;;;;27.25;23.75;;;;;13.42;34.10;102253.91;5061127;27;46169;-61
2022/03/23 08:55:51;;;;;;;;;25.50;23.50;;;;;13.45;34.30;102248.56;5064925;27;45623;-61
2022/03/23 08:58:17;;;;;;;;;24.75;24.75;;;;;13.48;33.56;102255.56;5065060;27;45426;-61
2022/03/23 09:00:42;;;;;;;;;30.25;27.25;;;;;13.47;34.10;102254.69;5065059;27;45525;-62
2022/03/23 09:03:08;;;;;;;;;25.50;23.00;;;;;13.50;34.07;102255.53;5063392;27;46101;-61
2022/03/23 09:05:33;;;;;;;;;24.50;24.00;;;;;13.51;34.12;102252.84;5064314;27;45521;-61
2022/03/23 09:08:01;;;;;;;;;26.50;24.50;;;;;13.57;34.46;102257.16;5073908;27;45562;-61
2022/03/23 09:10:27;;;;;;;;;29.00;25.25;;;;;13.62;34.21;102252.63;5075985;27;45616;-61
2022/03/23 09:12:52;;;;;;;;;25.50;23.00;;;;;13.64;33.62;102242.88;5058196;27;45347;-61
2022/03/23 09:15:19;;;;;;;;;28.75;25.75;;;;;13.63;33.48;102247.31;5073822;27;45572;-61
2022/03/23 09:17:45;;;;;;;;;23.75;23.00;;;;;13.67;34.25;102253.38;5069646;27;45554;-62
2022/03/23 09:20:12;;;;;;;;;25.75;25.00;;;;;13.74;34.06;102243.56;5056827;27;45587;-62
2022/03/23 09:22:38;;;;;;;;;29.25;25.25;;;;;13.77;33.56;102247.00;5058609;27;46067;-62
2022/03/23 09:25:08;;;;;;;;;24.00;22.75;;;;;13.81;33.63;102238.13;5068752;27;45521;-62
2022/03/23 09:27:36;;;;;;;;;27.50;24.00;;;;;13.85;33.64;102242.41;5074720;28;45356;-63
2022/03/23 09:30:04;;;;;;;;;23.67;22.33;;;;;13.95;33.55;102242.22;5075290;27;45390;-62
2022/03/23 09:32:29;;;;;;;;;27.00;24.00;;;;;13.99;32.43;102243.88;5056023;27;45443;-61
2022/03/23 09:34:55;;;;;;;;;22.00;21.00;;;;;14.01;33.75;102250.88;5068228;28;45417;-62
2022/03/23 09:40:06;;;;;;;;;26.75;24.50;;;;;14.09;33.12;102248.91;5065455;27;45438;-62
2022/03/23 09:42:32;;;;;;;;;25.00;20.67;;;;;14.12;32.89;102246.19;5063162;27;45926;-62
2022/03/23 09:44:57;;;;;;;;;28.33;25.33;;;;;14.14;33.29;102252.31;5055648;28;45731;-62
2022/03/23 09:47:23;;;;;;;;;26.00;26.00;;;;;14.19;32.50;102248.72;5066802;27;45579;-62
2022/03/23 09:49:48;;;;;;;;;27.75;27.00;;;;;14.19;33.10;102252.22;5073979;27;45406;-62
2022/03/23 09:52:14;;;;;;;;;25.00;21.67;;;;;14.22;33.41;102254.78;5069871;27;46065;-62
2022/03/23 09:54:41;;;;;;;;;21.25;18.75;;;;;14.25;33.13;102252.06;5062057;27;45506;-62
2022/03/23 09:57:07;;;;;;;;;24.00;23.67;;;;;14.29;32.11;102252.84;5054870;27;45377;-62
2022/03/23 09:59:34;;;;;;;;;26.25;25.00;;;;;14.30;32.28;102252.81;5062560;27;45636;-62
2022/03/23 10:02:02;;;;;;;;;25.25;24.75;;;;;14.30;31.35;102258.13;5055706;27;46177;-62
2022/03/23 10:05:02;;;;;;;;;28.00;24.25;;;;;14.33;32.08;102246.59;5055776;27;45588;-62
2022/03/23 10:07:41;;;;;;;;;31.25;27.50;;;;;14.35;32.09;102253.59;5060657;27;46347;-62
2022/03/23 10:10:44;;;;;;;;;29.75;29.75;;;;;14.42;31.89;102250.78;5055479;27;45351;-62
2022/03/23 10:13:46;;;;;;;;;26.00;26.00;;;;;14.62;31.77;102245.91;5055236;28;45608;-62
2022/03/23 10:16:33;;;;;;;;;22.67;22.67;;;;;14.92;31.64;102246.00;5056729;27;45390;-62
2022/03/23 10:18:59;;;;;;;;;25.50;25.50;;;;;15.17;31.51;102241.75;5069455;27;45466;-62
2022/03/23 10:21:33;;;;;;;;;23.67;21.67;;;;;15.29;30.05;102240.53;5074720;27;45488;-62
2022/03/23 10:23:58;;;;;;;;;21.00;21.00;;;;;15.31;31.22;102230.72;5066897;27;45534;-62
2022/03/23 10:26:24;;;;;;;;;25.67;23.33;;;;;15.30;30.47;102242.25;5059972;27;45785;-64
2022/03/23 10:28:50;;;;;;;;;24.00;24.00;;;;;15.35;30.33;102231.53;5065249;27;45451;-62
2022/03/23 10:31:24;;;;;;;;;21.00;19.00;;;;;15.45;29.50;102238.31;5079017;28;45477;-62
2022/03/23 10:34:07;;;;;;;;;17.33;15.67;;;;;15.46;30.38;102229.44;5078237;27;45490;-62
2022/03/23 10:36:55;;;;;;;;;27.33;27.33;;;;;15.44;29.44;102232.13;5072188;27;45465;-62
2022/03/23 10:39:27;;;;;;;;;24.00;22.33;;;;;15.36;29.80;102233.25;5059425;27;45505;-61
2022/03/23 10:42:13;;;;;;;;;25.00;21.00;;;;;15.30;30.57;102225.50;5084547;27;45573;-62
2022/03/23 10:44:40;;;;;;;;;22.33;19.67;;;;;15.29;30.29;102221.13;5072210;27;45414;-62
2022/03/23 10:47:05;;;;;;;;;23.00;21.00;;;;;15.28;30.41;102220.22;5058386;28;45575;-62
2022/03/23 10:49:36;;;;;;;;;26.67;25.67;;;;;15.27;30.30;102225.59;5076063;27;45493;-62
2022/03/23 10:52:14;;;;;;;;;24.67;22.00;;;;;15.23;30.02;102223.03;5075648;27;45513;-62
2022/03/23 10:54:41;;;;;;;;;24.33;22.67;;;;;15.20;30.18;102223.09;5078445;27;45641;-62
2022/03/23 10:57:06;;;;;;;;;20.00;20.00;;;;;15.20;29.85;102216.94;5063652;27;45497;-62
2022/03/23 10:59:32;;;;;;;;;19.33;19.00;;;;;15.22;29.57;102212.47;5068154;27;45560;-62
2022/03/23 11:02:04;;;;;;;;;18.33;18.00;;;;;15.25;29.63;102215.88;5074853;27;45540;-62
2022/03/23 11:04:53;;;;;;;;;28.67;25.67;;;;;15.28;30.12;102206.97;5058240;27;46158;-62
2022/03/23 11:07:39;;;;;;;;;35.50;32.25;;;;;15.29;30.51;102208.72;5062812;27;45496;-62
2022/03/23 11:15:47;;;;;;;;;22.67;20.33;;;;;15.35;28.66;102199.72;5061509;27;45400;-63
2022/03/23 11:18:17;;;;;;;;;28.33;23.33;;;;;15.38;28.98;102189.03;5060082;27;45415;-61
2022/03/23 11:20:51;;;;;;;;;26.67;25.00;;;;;15.42;28.41;102188.91;5057775;27;45372;-61
2022/03/23 11:23:23;;;;;;;;;27.67;23.33;;;;;15.45;28.14;102191.44;5059469;27;45563;-62
2022/03/23 11:25:54;;;;;;;;;24.00;23.00;;;;;15.50;27.72;102187.78;5058509;27;45475;-61
2022/03/23 11:28:20;;;;;;;;;24.00;24.00;;;;;15.51;28.48;102185.09;5074254;27;45474;-61
2022/03/23 11:30:48;;;;;;;;;23.67;22.00;;;;;15.54;27.92;102179.69;5059750;27;45421;-61
2022/03/23 11:33:25;;;;;;;;;26.33;26.33;;;;;15.56;27.58;102179.66;5064496;27;45564;-62